Íslenskir flugvellir

Veldu flugvelli í þeirri röð sem þeir eiga að birtast og styddu á hnappinn

Uppfært síðast 17.01.2021 - kl. 13:24

SIGMET síðustu 6 klst.

Engin SIGMET skeyti bárust síðustu 6 klst.

Egilsstaðir

METAR síðustu 3 klst

TímiSkeyti
2021-01-17 13.00METAR BIEG 171300Z 16007KT 9000 -RA OVC021 01/00 Q0994 R04/290195
2021-01-17 12.00METAR BIEG 171200Z 16005KT 9999 -RASN OVC020 01/00 Q0994 R04/290195
2021-01-17 11.00METAR BIEG 171100Z 17006KT 9999 -RASN BKN016 OVC020 01/00 Q0995 R04/290195

TAF

TAFBIEG2021-01-17 10.52Z171212VRB02KT 9999 -RADZ BKN020 BKN030 TX01/1718Z TN00/1803Z BECMG 1712/1714 30010KT 9999 -SHSN TEMPO 1718/1812 3500 SHSN BKN010 BECMG 1802/1804 36008KT

Allur vindur er réttvísandi bæði í Metar og frá sjálfvirkum veðurstöðvum




Aðrir tengdir vefir



Þetta vefsvæði byggir á Eplica